Bedford, Massachusetts
Current Conditions -  °F | °C
As of 6:56 PM on Friday 24 Oct 2014 (Local Time) from KBED Reporting Station
Overcast Overcast  
Wind Chill: 50°   Ceiling: 2600
Heat Index: 50°   Visibility: 10mi
Dew Point: 43°   Wind: 8mph
Humidity: 77%   Direction: 280°W
Pressure: 29.72"   Gusts: NA
Location:  42.49°N, 71.28°W
Report Text: KBED 242256Z 28007KT 10SM OVC026 10/06 A2972 RMK AO2 SLP076 T01000061
Loading
Personal Weather Stations






























Interactive Weather Map New forecast layout! Learn more

10-Day Weather Forecast

Advertisements
Track Severe Weather on mobile